sensor_id;sensor_type;location;lat;lon;timestamp;pressure;altitude;pressure_sealevel;temperature;humidity
70217;BME280;65567;55.684;37.570;2023-01-27T00:00:12;99437.19;;;1.40;56.60
70217;BME280;65567;55.684;37.570;2023-01-27T00:02:40;99439.81;;;1.37;57.12
70217;BME280;65567;55.684;37.570;2023-01-27T00:05:08;99438.97;;;1.35;56.82
70217;BME280;65567;55.684;37.570;2023-01-27T00:07:34;99444.00;;;1.45;56.57
70217;BME280;65567;55.684;37.570;2023-01-27T00:10:01;99440.53;;;1.51;56.31
70217;BME280;65567;55.684;37.570;2023-01-27T00:12:27;99453.44;;;1.48;56.31
70217;BME280;65567;55.684;37.570;2023-01-27T00:15:13;99457.69;;;1.52;56.14
70217;BME280;65567;55.684;37.570;2023-01-27T00:17:40;99451.72;;;1.50;56.22
70217;BME280;65567;55.684;37.570;2023-01-27T00:20:07;99455.94;;;1.59;56.17
70217;BME280;65567;55.684;37.570;2023-01-27T00:22:34;99454.19;;;1.61;56.01
70217;BME280;65567;55.684;37.570;2023-01-27T00:25:18;99454.31;;;1.47;56.24
70217;BME280;65567;55.684;37.570;2023-01-27T00:27:44;99454.31;;;1.50;56.41
70217;BME280;65567;55.684;37.570;2023-01-27T00:30:11;99448.31;;;1.45;56.71
70217;BME280;65567;55.684;37.570;2023-01-27T00:32:37;99444.91;;;1.43;56.85
70217;BME280;65567;55.684;37.570;2023-01-27T00:35:22;99440.53;;;1.51;56.80
70217;BME280;65567;55.684;37.570;2023-01-27T00:37:50;99438.13;;;1.34;56.97
70217;BME280;65567;55.684;37.570;2023-01-27T00:40:16;99441.56;;;1.33;57.21
70217;BME280;65567;55.684;37.570;2023-01-27T00:42:43;99442.47;;;1.29;57.21
70217;BME280;65567;55.684;37.570;2023-01-27T00:45:09;99443.44;;;1.17;57.28
70217;BME280;65567;55.684;37.570;2023-01-27T00:47:54;99446.72;;;1.33;56.97
70217;BME280;65567;55.684;37.570;2023-01-27T00:50:20;99434.56;;;1.43;56.60
70217;BME280;65567;55.684;37.570;2023-01-27T00:52:46;99438.09;;;1.36;56.93
70217;BME280;65567;55.684;37.570;2023-01-27T00:55:12;99440.78;;;1.23;57.23
70217;BME280;65567;55.684;37.570;2023-01-27T00:57:41;99424.53;;;1.15;57.47
70217;BME280;65567;55.684;37.570;2023-01-27T01:00:09;99423.59;;;1.24;57.27
70217;BME280;65567;55.684;37.570;2023-01-27T01:02:35;99423.63;;;1.19;57.59
70217;BME280;65567;55.684;37.570;2023-01-27T01:05:01;99421.84;;;1.24;57.38
70217;BME280;65567;55.684;37.570;2023-01-27T01:07:28;99418.41;;;1.25;57.34
70217;BME280;65567;55.684;37.570;2023-01-27T01:09:53;99415.97;;;1.11;57.98
70217;BME280;65567;55.684;37.570;2023-01-27T01:12:19;99417.66;;;1.14;57.81
70217;BME280;65567;55.684;37.570;2023-01-27T01:14:45;99415.78;;;1.28;57.52
70217;BME280;65567;55.684;37.570;2023-01-27T01:17:11;99414.16;;;1.21;57.73
70217;BME280;65567;55.684;37.570;2023-01-27T01:19:37;99415.06;;;1.15;57.93
70217;BME280;65567;55.684;37.570;2023-01-27T01:22:03;99418.56;;;1.10;58.18
70217;BME280;65567;55.684;37.570;2023-01-27T01:24:29;99416.88;;;1.03;58.41
70217;BME280;65567;55.684;37.570;2023-01-27T01:26:55;99420.41;;;0.92;58.70
70217;BME280;65567;55.684;37.570;2023-01-27T01:29:21;99418.69;;;0.94;58.81
70217;BME280;65567;55.684;37.570;2023-01-27T01:31:49;99421.19;;;1.04;58.30
70217;BME280;65567;55.684;37.570;2023-01-27T01:34:16;99415.94;;;1.16;58.14
70217;BME280;65567;55.684;37.570;2023-01-27T01:36:42;99414.13;;;1.24;57.57
70217;BME280;65567;55.684;37.570;2023-01-27T01:39:08;99410.75;;;1.16;58.22
70217;BME280;65567;55.684;37.570;2023-01-27T01:41:34;99415.94;;;1.16;58.21
70217;BME280;65567;55.684;37.570;2023-01-27T01:44:26;99407.44;;;1.03;58.93
70217;BME280;65567;55.684;37.570;2023-01-27T01:46:55;99414.34;;;0.99;59.07
70217;BME280;65567;55.684;37.570;2023-01-27T01:49:26;99406.59;;;0.99;58.67
70217;BME280;65567;55.684;37.570;2023-01-27T01:52:14;99409.28;;;0.90;59.21
70217;BME280;65567;55.684;37.570;2023-01-27T01:54:45;99409.41;;;0.75;59.48
70217;BME280;65567;55.684;37.570;2023-01-27T01:57:21;99416.22;;;0.82;59.21
70217;BME280;65567;55.684;37.570;2023-01-27T01:59:53;99414.59;;;0.72;59.58
70217;BME280;65567;55.684;37.570;2023-01-27T02:02:23;99418.09;;;0.61;59.36
70217;BME280;65567;55.684;37.570;2023-01-27T02:04:53;99418.88;;;0.71;59.25
70217;BME280;65567;55.684;37.570;2023-01-27T02:07:37;99412.78;;;0.80;58.40
70217;BME280;65567;55.684;37.570;2023-01-27T02:10:05;99408.50;;;0.77;58.35
70217;BME280;65567;55.684;37.570;2023-01-27T02:12:31;99396.41;;;0.87;57.93
70217;BME280;65567;55.684;37.570;2023-01-27T02:14:57;99403.25;;;0.91;57.63
70217;BME280;65567;55.684;37.570;2023-01-27T02:17:23;99401.50;;;0.93;57.47
70217;BME280;65567;55.684;37.570;2023-01-27T02:28:06;99399.00;;;0.87;57.42
70217;BME280;65567;55.684;37.570;2023-01-27T02:30:33;99392.28;;;0.64;57.76
70217;BME280;65567;55.684;37.570;2023-01-27T02:32:59;99398.44;;;0.46;59.05
70217;BME280;65567;55.684;37.570;2023-01-27T02:35:39;99396.66;;;0.56;58.82
70217;BME280;65567;55.684;37.570;2023-01-27T02:38:08;99392.28;;;0.66;58.24
70217;BME280;65567;55.684;37.570;2023-01-27T02:40:36;99399.09;;;0.75;57.79
70217;BME280;65567;55.684;37.570;2023-01-27T02:43:03;99394.75;;;0.78;57.55
70217;BME280;65567;55.684;37.570;2023-01-27T02:45:30;99385.34;;;0.73;57.49
70217;BME280;65567;55.684;37.570;2023-01-27T02:47:56;99384.38;;;0.86;57.05
70217;BME280;65567;55.684;37.570;2023-01-27T02:50:22;99378.31;;;0.90;56.79
70217;BME280;65567;55.684;37.570;2023-01-27T02:52:48;99381.66;;;1.03;56.42
70217;BME280;65567;55.684;37.570;2023-01-27T02:55:14;99377.41;;;0.96;56.48
70217;BME280;65567;55.684;37.570;2023-01-27T02:57:40;99376.53;;;0.97;56.55
70217;BME280;65567;55.684;37.570;2023-01-27T03:00:06;99390.28;;;0.96;56.43
70217;BME280;65567;55.684;37.570;2023-01-27T03:02:34;99387.84;;;0.80;56.89
70217;BME280;65567;55.684;37.570;2023-01-27T03:05:00;99381.66;;;1.02;56.41
70217;BME280;65567;55.684;37.570;2023-01-27T03:07:26;99380.75;;;1.06;55.92
70217;BME280;65567;55.684;37.570;2023-01-27T03:09:52;99381.69;;;0.98;56.40
70217;BME280;65567;55.684;37.570;2023-01-27T03:12:18;99386.88;;;0.92;56.42
70217;BME280;65567;55.684;37.570;2023-01-27T03:14:51;99383.47;;;0.92;56.56
70217;BME280;65567;55.684;37.570;2023-01-27T03:17:36;99390.50;;;0.73;57.42
70217;BME280;65567;55.684;37.570;2023-01-27T03:20:21;99400.03;;;0.60;57.34
70217;BME280;65567;55.684;37.570;2023-01-27T03:22:48;99399.31;;;0.44;58.30
70217;BME280;65567;55.684;37.570;2023-01-27T03:25:15;99397.56;;;0.49;58.27
70217;BME280;65567;55.684;37.570;2023-01-27T03:27:41;99393.16;;;0.62;57.83
70217;BME280;65567;55.684;37.570;2023-01-27T03:30:08;99397.50;;;0.55;57.90
70217;BME280;65567;55.684;37.570;2023-01-27T03:32:35;99394.03;;;0.59;58.23
70217;BME280;65567;55.684;37.570;2023-01-27T03:35:01;99385.28;;;0.79;57.33
70217;BME280;65567;55.684;37.570;2023-01-27T03:37:29;99382.78;;;0.74;57.32
70217;BME280;65567;55.684;37.570;2023-01-27T03:40:15;99390.41;;;0.85;56.74
70217;BME280;65567;55.684;37.570;2023-01-27T03:43:00;99383.53;;;0.87;56.78
70217;BME280;65567;55.684;37.570;2023-01-27T03:45:49;99385.25;;;0.85;56.72
70217;BME280;65567;55.684;37.570;2023-01-27T03:48:34;99386.00;;;0.96;56.14
70217;BME280;65567;55.684;37.570;2023-01-27T03:51:02;99393.03;;;0.77;56.85
70217;BME280;65567;55.684;37.570;2023-01-27T03:53:28;99389.47;;;0.94;56.27
70217;BME280;65567;55.684;37.570;2023-01-27T03:55:54;99395.56;;;0.85;56.27
70217;BME280;65567;55.684;37.570;2023-01-27T03:58:28;99392.13;;;0.83;56.36
70217;BME280;65567;55.684;37.570;2023-01-27T04:01:00;99398.09;;;0.91;55.83
70217;BME280;65567;55.684;37.570;2023-01-27T04:03:33;99404.13;;;0.89;55.67
70217;BME280;65567;55.684;37.570;2023-01-27T04:06:23;99401.69;;;0.73;56.35
70217;BME280;65567;55.684;37.570;2023-01-27T04:09:09;99403.41;;;0.70;56.46
70217;BME280;65567;55.684;37.570;2023-01-27T04:11:35;99408.63;;;0.63;56.18
70217;BME280;65567;55.684;37.570;2023-01-27T04:14:25;99407.59;;;0.86;55.74
70217;BME280;65567;55.684;37.570;2023-01-27T04:16:53;99405.81;;;0.90;55.50
70217;BME280;65567;55.684;37.570;2023-01-27T04:19:20;99400.78;;;0.77;55.32
70217;BME280;65567;55.684;37.570;2023-01-27T04:21:46;99409.47;;;0.65;55.82
70217;BME280;65567;55.684;37.570;2023-01-27T04:24:12;99425.81;;;0.60;55.81
70217;BME280;65567;55.684;37.570;2023-01-27T04:26:45;99424.22;;;0.40;56.52
70217;BME280;65567;55.684;37.570;2023-01-27T04:29:12;99421.75;;;0.28;57.07
70217;BME280;65567;55.684;37.570;2023-01-27T04:31:39;99427.63;;;0.50;56.62
70217;BME280;65567;55.684;37.570;2023-01-27T04:34:05;99426.63;;;0.70;56.28
70217;BME280;65567;55.684;37.570;2023-01-27T04:36:32;99421.38;;;0.79;55.85
70217;BME280;65567;55.684;37.570;2023-01-27T04:38:58;99414.56;;;0.75;56.20
70217;BME280;65567;55.684;37.570;2023-01-27T04:41:23;99412.00;;;0.73;56.61
70217;BME280;65567;55.684;37.570;2023-01-27T04:43:49;99418.84;;;0.76;57.19
70217;BME280;65567;55.684;37.570;2023-01-27T04:46:15;99418.66;;;0.97;56.72
70217;BME280;65567;55.684;37.570;2023-01-27T04:48:41;99419.50;;;0.99;56.34
70217;BME280;65567;55.684;37.570;2023-01-27T04:51:07;99416.06;;;1.01;56.63
70217;BME280;65567;55.684;37.570;2023-01-27T04:53:33;99424.81;;;0.81;56.56
70217;BME280;65567;55.684;37.570;2023-01-27T04:56:02;99425.84;;;0.61;56.77
70217;BME280;65567;55.684;37.570;2023-01-27T04:58:29;99427.59;;;0.53;57.42
70217;BME280;65567;55.684;37.570;2023-01-27T05:00:55;99428.56;;;0.33;57.67
70217;BME280;65567;55.684;37.570;2023-01-27T05:03:21;99434.63;;;0.28;57.58
70217;BME280;65567;55.684;37.570;2023-01-27T05:05:47;99433.72;;;0.33;57.49
70217;BME280;65567;55.684;37.570;2023-01-27T05:08:13;99430.31;;;0.28;57.86
70217;BME280;65567;55.684;37.570;2023-01-27T05:10:39;99430.16;;;0.53;57.09
70217;BME280;65567;55.684;37.570;2023-01-27T05:13:07;99437.03;;;0.54;56.80
70217;BME280;65567;55.684;37.570;2023-01-27T05:15:33;99436.19;;;0.51;56.83
70217;BME280;65567;55.684;37.570;2023-01-27T05:17:59;99432.78;;;0.45;56.85
70217;BME280;65567;55.684;37.570;2023-01-27T05:20:25;99441.41;;;0.44;57.27
70217;BME280;65567;55.684;37.570;2023-01-27T05:22:51;99439.75;;;0.31;57.41
70217;BME280;65567;55.684;37.570;2023-01-27T05:25:40;99442.28;;;0.42;57.52
70217;BME280;65567;55.684;37.570;2023-01-27T05:28:06;99444.69;;;0.67;56.84
70217;BME280;65567;55.684;37.570;2023-01-27T05:30:35;99451.59;;;0.61;56.93
70217;BME280;65567;55.684;37.570;2023-01-27T05:33:02;99443.06;;;0.53;57.64
70217;BME280;65567;55.684;37.570;2023-01-27T05:35:28;99447.38;;;0.48;57.51
70217;BME280;65567;55.684;37.570;2023-01-27T05:37:57;99450.09;;;0.28;57.97
70217;BME280;65567;55.684;37.570;2023-01-27T05:40:23;99448.34;;;0.28;58.05
70217;BME280;65567;55.684;37.570;2023-01-27T05:42:52;99445.88;;;0.14;58.08
70217;BME280;65567;55.684;37.570;2023-01-27T05:45:19;99460.53;;;-0.03;58.55
70217;BME280;65567;55.684;37.570;2023-01-27T05:47:49;99463.09;;;-0.02;58.77
70217;BME280;65567;55.684;37.570;2023-01-27T05:50:16;99457.84;;;0.25;58.14
70217;BME280;65567;55.684;37.570;2023-01-27T05:52:43;99459.56;;;0.23;57.83
70217;BME280;65567;55.684;37.570;2023-01-27T05:55:10;99464.75;;;0.10;58.30
70217;BME280;65567;55.684;37.570;2023-01-27T05:57:36;99464.75;;;0.09;58.20
70217;BME280;65567;55.684;37.570;2023-01-27T06:00:03;99467.38;;;0.06;58.38
70217;BME280;65567;55.684;37.570;2023-01-27T06:02:29;99469.06;;;0.14;58.72
70217;BME280;65567;55.684;37.570;2023-01-27T06:04:55;99464.72;;;0.21;58.37
70217;BME280;65567;55.684;37.570;2023-01-27T06:07:21;99466.34;;;0.41;57.96
70217;BME280;65567;55.684;37.570;2023-01-27T06:09:47;99466.25;;;0.56;57.56
70217;BME280;65567;55.684;37.570;2023-01-27T06:12:14;99462.75;;;0.63;57.49
70217;BME280;65567;55.684;37.570;2023-01-27T06:14:40;99466.16;;;0.72;56.99
70217;BME280;65567;55.684;37.570;2023-01-27T06:17:06;99466.09;;;0.78;56.79
70217;BME280;65567;55.684;37.570;2023-01-27T06:19:32;99470.47;;;0.67;57.30
70217;BME280;65567;55.684;37.570;2023-01-27T06:21:58;99472.94;;;0.85;56.61
70217;BME280;65567;55.684;37.570;2023-01-27T06:24:24;99471.13;;;0.93;56.38
70217;BME280;65567;55.684;37.570;2023-01-27T06:26:50;99477.28;;;0.77;56.93
70217;BME280;65567;55.684;37.570;2023-01-27T06:29:16;99472.13;;;0.78;56.65
70217;BME280;65567;55.684;37.570;2023-01-27T06:31:42;99472.88;;;0.90;56.46
70217;BME280;65567;55.684;37.570;2023-01-27T06:34:08;99478.81;;;1.04;56.42
70217;BME280;65567;55.684;37.570;2023-01-27T06:36:34;99472.78;;;1.02;56.17
70217;BME280;65567;55.684;37.570;2023-01-27T06:39:01;99481.44;;;0.96;56.43
70217;BME280;65567;55.684;37.570;2023-01-27T06:41:27;99465.91;;;1.04;56.08
70217;BME280;65567;55.684;37.570;2023-01-27T06:43:53;99473.78;;;0.86;56.62
70217;BME280;65567;55.684;37.570;2023-01-27T06:46:19;99476.31;;;0.90;56.52
70217;BME280;65567;55.684;37.570;2023-01-27T06:48:45;99475.19;;;1.22;55.77
70217;BME280;65567;55.684;37.570;2023-01-27T06:51:11;99465.69;;;1.30;55.30
70217;BME280;65567;55.684;37.570;2023-01-27T06:53:36;99473.44;;;1.26;55.47
70217;BME280;65567;55.684;37.570;2023-01-27T06:56:04;99469.97;;;1.30;55.19
70217;BME280;65567;55.684;37.570;2023-01-27T06:58:30;99464.81;;;1.30;55.11
70217;BME280;65567;55.684;37.570;2023-01-27T07:00:59;99470.94;;;1.18;55.33
70217;BME280;65567;55.684;37.570;2023-01-27T07:03:25;99470.84;;;1.27;55.17
70217;BME280;65567;55.684;37.570;2023-01-27T07:05:52;99475.28;;;1.11;55.54
70217;BME280;65567;55.684;37.570;2023-01-27T07:08:18;99486.63;;;0.90;56.08
70217;BME280;65567;55.684;37.570;2023-01-27T07:10:44;99485.88;;;0.77;56.36
70217;BME280;65567;55.684;37.570;2023-01-27T07:13:12;99484.88;;;0.92;56.10
70217;BME280;65567;55.684;37.570;2023-01-27T07:15:39;99484.00;;;0.95;56.30
70217;BME280;65567;55.684;37.570;2023-01-27T07:18:05;99477.06;;;1.06;55.72
70217;BME280;65567;55.684;37.570;2023-01-27T07:20:31;99478.53;;;1.35;55.04
70217;BME280;65567;55.684;37.570;2023-01-27T07:23:02;99481.09;;;1.35;54.71
70217;BME280;65567;55.684;37.570;2023-01-27T07:25:29;99479.56;;;1.15;55.45
70217;BME280;65567;55.684;37.570;2023-01-27T07:27:59;99487.16;;;1.32;54.91
70217;BME280;65567;55.684;37.570;2023-01-27T07:30:25;99493.13;;;1.36;54.56
70217;BME280;65567;55.684;37.570;2023-01-27T07:32:51;99490.69;;;1.24;54.81
70217;BME280;65567;55.684;37.570;2023-01-27T07:35:20;99490.69;;;1.21;54.98
70217;BME280;65567;55.684;37.570;2023-01-27T07:37:46;99491.44;;;1.34;54.88
70217;BME280;65567;55.684;37.570;2023-01-27T07:40:12;99492.16;;;1.48;54.48
70217;BME280;65567;55.684;37.570;2023-01-27T07:42:39;99494.69;;;1.56;54.16
70217;BME280;65567;55.684;37.570;2023-01-27T07:45:06;99480.94;;;1.52;53.81
70217;BME280;65567;55.684;37.570;2023-01-27T07:47:32;99501.81;;;1.30;54.30
70217;BME280;65567;55.684;37.570;2023-01-27T07:49:58;99498.50;;;1.13;54.71
70217;BME280;65567;55.684;37.570;2023-01-27T07:52:26;99511.50;;;0.97;55.31
70217;BME280;65567;55.684;37.570;2023-01-27T07:54:52;99506.41;;;0.91;55.44
70217;BME280;65567;55.684;37.570;2023-01-27T07:57:20;99509.88;;;0.89;55.70
70217;BME280;65567;55.684;37.570;2023-01-27T07:59:46;99515.03;;;0.86;56.07
70217;BME280;65567;55.684;37.570;2023-01-27T08:02:12;99514.16;;;0.91;55.91
70217;BME280;65567;55.684;37.570;2023-01-27T08:04:38;99515.84;;;0.95;55.90
70217;BME280;65567;55.684;37.570;2023-01-27T08:07:05;99522.59;;;1.12;55.38
70217;BME280;65567;55.684;37.570;2023-01-27T08:09:30;99516.56;;;1.13;55.39
70217;BME280;65567;55.684;37.570;2023-01-27T08:11:57;99513.25;;;0.92;55.67
70217;BME280;65567;55.684;37.570;2023-01-27T08:14:23;99504.66;;;0.96;55.83
70217;BME280;65567;55.684;37.570;2023-01-27T08:16:49;99514.00;;;1.10;55.56
70217;BME280;65567;55.684;37.570;2023-01-27T08:19:15;99513.97;;;1.16;55.51
70217;BME280;65567;55.684;37.570;2023-01-27T08:21:40;99518.28;;;1.14;55.78
70217;BME280;65567;55.684;37.570;2023-01-27T08:24:06;99518.97;;;1.35;55.13
70217;BME280;65567;55.684;37.570;2023-01-27T08:26:35;99518.84;;;1.50;54.87
70217;BME280;65567;55.684;37.570;2023-01-27T08:29:01;99520.66;;;1.39;54.89
70217;BME280;65567;55.684;37.570;2023-01-27T08:31:27;99522.44;;;1.30;55.22
70217;BME280;65567;55.684;37.570;2023-01-27T08:33:53;99526.72;;;1.33;54.89
70217;BME280;65567;55.684;37.570;2023-01-27T08:36:21;99523.41;;;1.19;55.35
70217;BME280;65567;55.684;37.570;2023-01-27T08:38:48;99524.09;;;1.38;54.91
70217;BME280;65567;55.684;37.570;2023-01-27T08:41:17;99514.66;;;1.38;54.95
70217;BME280;65567;55.684;37.570;2023-01-27T08:43:44;99510.31;;;1.39;55.04
70217;BME280;65567;55.684;37.570;2023-01-27T08:46:10;99519.84;;;1.34;55.11
70217;BME280;65567;55.684;37.570;2023-01-27T08:48:37;99512.78;;;1.54;54.60
70217;BME280;65567;55.684;37.570;2023-01-27T08:51:04;99513.50;;;1.69;54.24
70217;BME280;65567;55.684;37.570;2023-01-27T08:53:31;99511.84;;;1.61;54.35
70217;BME280;65567;55.684;37.570;2023-01-27T08:56:02;99510.03;;;1.70;54.39
70217;BME280;65567;55.684;37.570;2023-01-27T08:58:28;99517.06;;;1.52;54.63
70217;BME280;65567;55.684;37.570;2023-01-27T09:00:54;99527.56;;;1.34;54.90
70217;BME280;65567;55.684;37.570;2023-01-27T09:03:23;99521.53;;;1.36;55.09
70217;BME280;65567;55.684;37.570;2023-01-27T09:05:50;99521.44;;;1.45;54.70
70217;BME280;65567;55.684;37.570;2023-01-27T09:08:16;99513.69;;;1.48;54.74
70217;BME280;65567;55.684;37.570;2023-01-27T09:10:42;99523.84;;;1.65;54.56
70217;BME280;65567;55.684;37.570;2023-01-27T09:13:09;99513.38;;;1.81;54.19
70217;BME280;65567;55.684;37.570;2023-01-27T09:15:35;99515.97;;;1.78;54.30
70217;BME280;65567;55.684;37.570;2023-01-27T09:18:02;99516.78;;;1.86;54.02
70217;BME280;65567;55.684;37.570;2023-01-27T09:20:29;99517.69;;;1.79;54.00
70217;BME280;65567;55.684;37.570;2023-01-27T09:22:56;99515.09;;;1.79;54.19
70217;BME280;65567;55.684;37.570;2023-01-27T09:25:23;99525.44;;;1.79;54.04
70217;BME280;65567;55.684;37.570;2023-01-27T09:27:54;99514.91;;;1.97;53.86
70217;BME280;65567;55.684;37.570;2023-01-27T09:30:20;99522.59;;;2.04;53.71
70217;BME280;65567;55.684;37.570;2023-01-27T09:32:46;99515.91;;;1.84;54.00
70217;BME280;65567;55.684;37.570;2023-01-27T09:35:12;99513.28;;;1.87;54.13
70217;BME280;65567;55.684;37.570;2023-01-27T09:37:57;99520.16;;;1.91;54.10
70217;BME280;65567;55.684;37.570;2023-01-27T09:40:32;99512.31;;;1.97;54.13
70217;BME280;65567;55.684;37.570;2023-01-27T09:43:16;99517.53;;;1.94;54.13
70217;BME280;65567;55.684;37.570;2023-01-27T09:51:34;99526.19;;;1.87;54.14
70217;BME280;65567;55.684;37.570;2023-01-27T09:57:25;99525.28;;;1.94;54.26
70217;BME280;65567;55.684;37.570;2023-01-27T10:16:58;99516.69;;;1.92;54.44
70217;BME280;65567;55.684;37.570;2023-01-27T10:23:05;99518.53;;;1.81;55.02
70217;BME280;65567;55.684;37.570;2023-01-27T10:25:50;99518.44;;;1.87;54.75
70217;BME280;65567;55.684;37.570;2023-01-27T10:28:01;99509.63;;;2.07;54.39
70217;BME280;65567;55.684;37.570;2023-01-27T10:30:37;99516.59;;;2.02;54.52
70217;BME280;65567;55.684;37.570;2023-01-27T10:33:15;99512.22;;;2.07;54.36
70217;BME280;65567;55.684;37.570;2023-01-27T10:35:53;99516.38;;;2.20;54.10
70217;BME280;65567;55.684;37.570;2023-01-27T10:38:39;99510.13;;;2.37;53.78
70217;BME280;65567;55.684;37.570;2023-01-27T10:47:00;99519.13;;;2.72;52.89
70217;BME280;65567;55.684;37.570;2023-01-27T10:49:34;99524.56;;;2.53;53.17
70217;BME280;65567;55.684;37.570;2023-01-27T10:52:12;99520.28;;;2.51;53.47
70217;BME280;65567;55.684;37.570;2023-01-27T10:54:46;99522.78;;;2.58;53.47
70217;BME280;65567;55.684;37.570;2023-01-27T10:58:04;99526.09;;;2.67;53.23
70217;BME280;65567;55.684;37.570;2023-01-27T11:00:15;99536.56;;;2.57;53.50
70217;BME280;65567;55.684;37.570;2023-01-27T11:05:24;99528.59;;;2.74;52.94
70217;BME280;65567;55.684;37.570;2023-01-27T11:08:00;99540.16;;;2.47;53.56
70217;BME280;65567;55.684;37.570;2023-01-27T11:10:34;99527.44;;;2.30;54.15
70217;BME280;65567;55.684;37.570;2023-01-27T11:13:02;99537.72;;;2.36;54.19
70217;BME280;65567;55.684;37.570;2023-01-27T11:15:32;99526.44;;;2.42;53.94
70217;BME280;65567;55.684;37.570;2023-01-27T11:18:04;99529.03;;;2.40;54.04
70217;BME280;65567;55.684;37.570;2023-01-27T11:20:39;99542.88;;;2.38;54.22
70217;BME280;65567;55.684;37.570;2023-01-27T11:26:00;99528.53;;;2.13;54.99
70217;BME280;65567;55.684;37.570;2023-01-27T11:28:44;99530.75;;;2.43;54.31
70217;BME280;65567;55.684;37.570;2023-01-27T11:34:17;99525.41;;;2.57;54.06
70217;BME280;65567;55.684;37.570;2023-01-27T11:36:47;99526.97;;;2.67;53.82
70217;BME280;65567;55.684;37.570;2023-01-27T11:39:15;99530.97;;;2.90;53.16
70217;BME280;65567;55.684;37.570;2023-01-27T11:41:49;99533.56;;;2.88;53.09
70217;BME280;65567;55.684;37.570;2023-01-27T11:44:36;99533.53;;;2.90;52.92
70217;BME280;65567;55.684;37.570;2023-01-27T11:47:05;99530.13;;;2.89;53.12
70217;BME280;65567;55.684;37.570;2023-01-27T11:49:43;99527.38;;;2.98;52.67
70217;BME280;65567;55.684;37.570;2023-01-27T11:52:20;99530.38;;;2.72;53.23
70217;BME280;65567;55.684;37.570;2023-01-27T11:57:24;99530.38;;;2.69;53.34
70217;BME280;65567;55.684;37.570;2023-01-27T12:00:32;99533.06;;;2.64;53.63
70217;BME280;65567;55.684;37.570;2023-01-27T12:03:20;99541.72;;;2.60;53.99
70217;BME280;65567;55.684;37.570;2023-01-27T12:05:54;99552.09;;;2.57;53.94
70217;BME280;65567;55.684;37.570;2023-01-27T12:08:39;99543.72;;;2.40;54.19
70217;BME280;65567;55.684;37.570;2023-01-27T12:11:26;99547.22;;;2.33;54.75
70217;BME280;65567;55.684;37.570;2023-01-27T12:13:57;99544.59;;;2.39;54.57
70217;BME280;65567;55.684;37.570;2023-01-27T12:16:48;99542.06;;;2.33;54.54
70217;BME280;65567;55.684;37.570;2023-01-27T12:19:24;99549.81;;;2.33;55.25
70217;BME280;65567;55.684;37.570;2023-01-27T12:21:55;99540.28;;;2.38;54.74
70217;BME280;65567;55.684;37.570;2023-01-27T12:24:39;99549.63;;;2.48;54.73
70217;BME280;65567;55.684;37.570;2023-01-27T12:27:18;99543.81;;;2.32;54.79
70217;BME280;65567;55.684;37.570;2023-01-27T12:30:33;99554.41;;;2.09;55.21
70217;BME280;65567;55.684;37.570;2023-01-27T12:32:42;99556.25;;;1.97;55.81
70217;BME280;65567;55.684;37.570;2023-01-27T12:35:25;99558.00;;;1.92;56.22
70217;BME280;65567;55.684;37.570;2023-01-27T12:40:31;99561.13;;;2.25;55.55
70217;BME280;65567;55.684;37.570;2023-01-27T12:45:33;99568.47;;;2.59;54.51
70217;BME280;65567;55.684;37.570;2023-01-27T12:50:39;99571.31;;;2.38;55.09
70217;BME280;65567;55.684;37.570;2023-01-27T12:53:13;99575.66;;;2.33;55.26
70217;BME280;65567;55.684;37.570;2023-01-27T12:55:46;99577.38;;;2.35;55.01
70217;BME280;65567;55.684;37.570;2023-01-27T13:01:02;99577.47;;;2.29;55.37
70217;BME280;65567;55.684;37.570;2023-01-27T13:03:30;99576.66;;;2.22;55.36
70217;BME280;65567;55.684;37.570;2023-01-27T13:05:58;99569.88;;;2.12;55.64
70217;BME280;65567;55.684;37.570;2023-01-27T13:08:26;99569.84;;;2.15;55.87
70217;BME280;65567;55.684;37.570;2023-01-27T13:10:57;99571.56;;;2.16;55.79
70217;BME280;65567;55.684;37.570;2023-01-27T13:13:26;99573.25;;;2.20;55.75
70217;BME280;65567;55.684;37.570;2023-01-27T13:16:22;99582.66;;;2.24;55.69
70217;BME280;65567;55.684;37.570;2023-01-27T13:18:59;99574.81;;;2.34;55.42
70217;BME280;65567;55.684;37.570;2023-01-27T13:21:32;99578.38;;;2.23;55.57
70217;BME280;65567;55.684;37.570;2023-01-27T13:24:12;99580.03;;;2.30;55.46
70217;BME280;65567;55.684;37.570;2023-01-27T13:26:40;99579.97;;;2.34;55.18
70217;BME280;65567;55.684;37.570;2023-01-27T13:29:12;99582.31;;;2.52;54.96
70217;BME280;65567;55.684;37.570;2023-01-27T13:31:57;99585.00;;;2.47;54.99
70217;BME280;65567;55.684;37.570;2023-01-27T13:34:45;99594.69;;;2.27;55.66
70217;BME280;65567;55.684;37.570;2023-01-27T13:37:23;99592.19;;;2.19;55.79
70217;BME280;65567;55.684;37.570;2023-01-27T13:39:58;99589.47;;;2.30;55.47
70217;BME280;65567;55.684;37.570;2023-01-27T13:42:27;99599.84;;;2.31;55.49
70217;BME280;65567;55.684;37.570;2023-01-27T13:45:19;99594.00;;;2.11;56.11
70217;BME280;65567;55.684;37.570;2023-01-27T13:47:54;99600.16;;;1.99;56.12
70217;BME280;65567;55.684;37.570;2023-01-27T13:52:56;99596.84;;;1.86;56.88
70217;BME280;65567;55.684;37.570;2023-01-27T13:55:56;99596.75;;;1.95;56.78
70217;BME280;65567;55.684;37.570;2023-01-27T14:01:31;99599.09;;;2.17;56.52
70217;BME280;65567;55.684;37.570;2023-01-27T14:04:25;99598.22;;;2.20;55.83
70217;BME280;65567;55.684;37.570;2023-01-27T14:12:42;99611.47;;;1.84;56.99
70217;BME280;65567;55.684;37.570;2023-01-27T14:15:31;99613.16;;;1.91;56.61
70217;BME280;65567;55.684;37.570;2023-01-27T14:18:13;99614.84;;;1.95;56.92
70217;BME280;65567;55.684;37.570;2023-01-27T14:32:22;99640.81;;;1.77;57.75
70217;BME280;65567;55.684;37.570;2023-01-27T14:38:14;99646.88;;;1.71;57.54
70217;BME280;65567;55.684;37.570;2023-01-27T14:52:01;99660.47;;;1.95;57.42
70217;BME280;65567;55.684;37.570;2023-01-27T15:03:17;99664.81;;;1.91;57.62
70217;BME280;65567;55.684;37.570;2023-01-27T15:06:01;99671.69;;;1.94;57.51
70217;BME280;65567;55.684;37.570;2023-01-27T15:19:38;99668.34;;;1.78;58.16